Airfield :
LOGIN :

Register | Disclaimer

   EN    FR    IT 

 










Legend :    VFR   Marginal VFR   IFR   Intensive IFR   Very Intensive IFR
Visi :
Ceiling :
>= 8 km
>= 3000ft
5 to 8 km
1000 to 3000 ft
1500m to 5 km
500 to 1000 ft
800 to 1500m
200 to 500 ft
< 800m
< 200 ft
Symbols :   Thunderstorms  Fog  Heavy snow  Heavy precipitations  Wind > 20 kt
SIGMETs :     Misc.  Thunderstorms  Icing  Turbulence  Mountain Waves  Volcanic Ashes






- Airport Elevation : 313 ft
- IATA code : LEH


LFOH - Le Havre Octeville

CURRENT METAR :
  • 051230Z AUTO 12016G26KT 9999 -DZ BKN012/// OVC017/// ///TCU 04/02 Q0988 TEMPO 3000 RA OVC005 BECMG 13015KT

EXPIRED METARs :
  • 051200Z AUTO 12014KT 9999 -RA OVC013 04/02 Q0988 TEMPO 3000 RA OVC005
  • 051130Z AUTO 13015G28KT 9999 -RA OVC013 04/02 Q0989 TEMPO 1200 DZRA OVC002 BECMG 15013KT
  • 051100Z AUTO 13015KT 100V160 9999 OVC012 04/01 Q0989 TEMPO 1200 DZRA OVC002
  • 051030Z AUTO 13014KT 9999 SCT011 SCT016 BKN056 03/01 Q0989 TEMPO 1200 DZRA OVC002
  • 051000Z AUTO 13013KT 9999 FEW014 BKN082 OVC100 03/01 Q0989 BECMG 3000 RA OVC012

TAF TAF LFOH
Valid from the 05 at 12:00 until the 06 at 12:00 UTC


051100Z 0512/0612 13015KT 9999 OVC012
TEMPO 0512/0612 3000 RA OVC005
TEMPO 0517/0524 BKN012 SCT060CB
ATIS : +33 2 35 54 64 93



MET'MAP, your aeronautical weather chart ! - Copyright ORBIFLY December 2007 - Disclaimer

ORBIFLY MET'MAP TEAM :

Programming & Development : Alexandra Zaïnal
Concept & original design : Baudouin d'Aumeries
Assistance for programming : Marc-Olivier Méhu
Technical & hardware support : Manuel Goepfert

Contact : metmap@orbifly.com




SOURCES & CREDITS :

   NOAA